createdAt,value
2019-06-10T00:00:43.626Z,64.45
2019-06-10T00:03:11.508Z,64.96
2019-06-10T00:05:37.428Z,64.90
2019-06-10T00:08:04.257Z,65.33
2019-06-10T00:10:31.199Z,65.01
2019-06-10T00:12:57.311Z,65.15
2019-06-10T00:15:23.185Z,65.37
2019-06-10T00:17:59.323Z,65.73
2019-06-10T00:20:16.809Z,65.74
2019-06-10T00:22:42.660Z,65.65
2019-06-10T00:25:08.714Z,66.06
2019-06-10T00:27:34.571Z,66.73
2019-06-10T00:30:02.925Z,66.76
2019-06-10T00:32:28.207Z,66.41
2019-06-10T00:34:54.086Z,67.16
2019-06-10T00:37:21.240Z,66.81
2019-06-10T00:39:47.212Z,67.10
2019-06-10T00:42:15.045Z,67.15
2019-06-10T00:44:41.625Z,67.28
2019-06-10T00:47:09.271Z,67.68
2019-06-10T00:49:35.381Z,67.52
2019-06-10T00:52:03.040Z,67.62
2019-06-10T00:54:31.259Z,67.57
2019-06-10T00:56:56.857Z,67.90
2019-06-10T00:59:22.795Z,68.19
2019-06-10T01:01:50.927Z,68.05
2019-06-10T01:04:16.681Z,68.15
2019-06-10T01:06:42.625Z,68.26
2019-06-10T01:09:08.801Z,68.17
2019-06-10T01:11:36.274Z,68.22
2019-06-10T01:14:03.070Z,68.33
2019-06-10T01:16:28.989Z,68.58
2019-06-10T01:18:54.864Z,68.71
2019-06-10T01:21:21.815Z,68.82
2019-06-10T01:23:47.981Z,69.06
2019-06-10T01:26:16.287Z,68.96
2019-06-10T01:28:41.637Z,69.05
2019-06-10T01:31:10.054Z,69.11
2019-06-10T01:33:35.260Z,69.27
2019-06-10T01:36:01.129Z,69.88
2019-06-10T01:38:27.017Z,69.11
2019-06-10T01:40:52.879Z,68.88
2019-06-10T01:43:21.223Z,69.00
2019-06-10T01:45:46.497Z,68.87
2019-06-10T01:48:14.725Z,69.07
2019-06-10T01:50:40.697Z,69.36
2019-06-10T01:53:07.312Z,68.82
2019-06-10T01:55:33.287Z,69.19
2019-06-10T01:58:00.863Z,69.31
2019-06-10T02:00:31.326Z,69.02
2019-06-10T02:02:57.146Z,69.36
2019-06-10T02:05:23.106Z,68.99
2019-06-10T02:07:48.971Z,68.86
2019-06-10T02:10:17.150Z,68.86
2019-06-10T02:12:42.726Z,68.91
2019-06-10T02:15:10.062Z,68.74
2019-06-10T02:17:36.641Z,69.15
2019-06-10T02:20:05.681Z,69.04
2019-06-10T02:22:31.899Z,69.14
2019-06-10T02:24:57.905Z,69.39
2019-06-10T02:27:23.771Z,69.30
2019-06-10T02:29:50.706Z,70.04
2019-06-10T02:32:21.127Z,69.52
2019-06-10T02:35:01.168Z,69.28
2019-06-10T02:37:15.616Z,69.16
2019-06-10T02:39:43.749Z,68.72
2019-06-10T02:42:09.680Z,69.15
2019-06-10T02:44:37.970Z,69.23
2019-06-10T02:47:03.997Z,69.47
2019-06-10T02:49:51.519Z,69.75
2019-06-10T02:51:57.643Z,69.38
2019-06-10T02:54:29.237Z,69.23
2019-06-10T02:56:53.694Z,69.07
2019-06-10T02:59:21.765Z,69.16
2019-06-10T03:01:46.876Z,69.02
2019-06-10T03:04:13.808Z,68.74
2019-06-10T03:06:41.601Z,69.10
2019-06-10T03:09:07.677Z,69.21
2019-06-10T03:11:37.181Z,68.87
2019-06-10T03:14:02.599Z,68.61
2019-06-10T03:16:32.750Z,68.63
2019-06-10T03:18:58.193Z,69.00
2019-06-10T03:21:25.848Z,69.19
2019-06-10T03:23:53.149Z,69.28
2019-06-10T03:26:19.283Z,69.42
2019-06-10T03:28:45.158Z,69.30
2019-06-10T03:31:15.230Z,70.15
2019-06-10T03:33:42.116Z,69.93
2019-06-10T03:36:06.539Z,69.73
2019-06-10T03:38:32.764Z,69.59
2019-06-10T03:40:58.682Z,69.80
2019-06-10T03:43:26.334Z,69.40
2019-06-10T03:45:53.168Z,68.37
2019-06-10T03:48:19.145Z,70.02
2019-06-10T03:50:45.154Z,70.05
2019-06-10T03:53:12.895Z,69.73
2019-06-10T03:55:38.802Z,70.41
2019-06-10T03:58:07.515Z,69.44
2019-06-10T04:00:36.726Z,69.35
2019-06-10T04:03:02.765Z,68.98
2019-06-10T04:05:28.956Z,69.41
2019-06-10T04:07:54.836Z,70.66
2019-06-10T04:10:23.976Z,69.26
2019-06-10T04:12:48.500Z,69.62
2019-06-10T04:15:14.560Z,69.74
2019-06-10T04:17:42.618Z,69.06
2019-06-10T04:20:12.377Z,68.86
2019-06-10T04:22:36.576Z,69.48
2019-06-10T04:25:04.138Z,69.35
2019-06-10T04:27:29.998Z,69.40
2019-06-10T04:29:56.068Z,69.80
2019-06-10T04:32:23.150Z,68.92
2019-06-10T04:34:49.691Z,69.49
2019-06-10T04:37:15.627Z,69.24
2019-06-10T04:39:42.801Z,69.13
2019-06-10T04:42:08.683Z,68.96
2019-06-10T04:44:34.544Z,69.82
2019-06-10T04:47:02.542Z,68.60
2019-06-10T04:49:28.660Z,69.18
2019-06-10T04:51:55.555Z,69.37
2019-06-10T04:54:23.849Z,70.06
2019-06-10T04:56:49.218Z,69.11
2019-06-10T04:59:15.076Z,69.08
2019-06-10T05:01:42.606Z,69.20
2019-06-10T05:04:08.628Z,69.99
2019-06-10T05:06:34.502Z,70.26
2019-06-10T05:09:00.400Z,69.41
2019-06-10T05:11:27.358Z,69.35
2019-06-10T05:13:54.140Z,69.52
2019-06-10T05:16:23.420Z,69.35
2019-06-10T05:18:47.760Z,69.94
2019-06-10T05:21:13.619Z,70.01
2019-06-10T05:23:39.479Z,69.11
2019-06-10T05:26:05.353Z,68.01
2019-06-10T05:28:33.863Z,67.70
2019-06-10T05:30:58.981Z,67.62
2019-06-10T05:33:26.002Z,66.13
2019-06-10T05:35:52.980Z,66.51
2019-06-10T05:38:18.982Z,65.42
2019-06-10T05:40:44.902Z,65.87
2019-06-10T05:43:12.904Z,64.94
2019-06-10T05:45:38.522Z,64.78
2019-06-10T05:48:04.429Z,63.81
2019-06-10T05:50:31.183Z,63.54
2019-06-10T05:52:58.113Z,63.42
2019-06-10T05:55:24.364Z,63.50
2019-06-10T05:57:53.280Z,63.36
2019-06-10T06:00:19.194Z,61.38
2019-06-10T06:02:45.054Z,61.12
2019-06-10T06:05:12.837Z,60.99
2019-06-10T06:07:38.821Z,60.48
2019-06-10T06:10:06.881Z,60.13
2019-06-10T06:12:34.516Z,59.53
2019-06-10T06:15:02.364Z,59.01
2019-06-10T06:17:28.383Z,58.36
2019-06-10T06:19:54.239Z,57.44
2019-06-10T06:22:22.145Z,57.45
2019-06-10T06:24:47.885Z,56.20
2019-06-10T06:27:13.754Z,55.40
2019-06-10T06:29:39.619Z,55.82
2019-06-10T06:32:05.518Z,56.35
2019-06-10T06:34:33.689Z,56.11
2019-06-10T06:36:59.148Z,56.44
2019-06-10T06:39:25.019Z,56.84
2019-06-10T06:41:52.831Z,54.77
2019-06-10T06:44:18.640Z,55.89
2019-06-10T06:46:44.524Z,55.62
2019-06-10T06:49:12.819Z,57.53
2019-06-10T06:51:54.047Z,59.28
2019-06-10T06:54:06.057Z,59.52
2019-06-10T06:56:35.637Z,60.38
2019-06-10T06:59:02.385Z,59.96
2019-06-10T07:01:27.747Z,58.96
2019-06-10T07:03:53.831Z,60.65
2019-06-10T07:06:22.950Z,60.66
2019-06-10T07:09:03.371Z,59.13
2019-06-10T07:11:17.305Z,57.44
2019-06-10T07:13:45.577Z,55.64
2019-06-10T07:16:13.170Z,54.22
2019-06-10T07:18:43.527Z,53.91
2019-06-10T07:21:06.578Z,53.20
2019-06-10T07:23:35.464Z,52.60
2019-06-10T07:26:02.295Z,51.33
2019-06-10T07:28:28.002Z,52.60
2019-06-10T07:30:55.320Z,52.15
2019-06-10T07:33:22.689Z,52.19
2019-06-10T07:35:48.705Z,51.61
2019-06-10T07:38:14.575Z,51.95
2019-06-10T07:40:45.247Z,50.53
2019-06-10T07:43:08.317Z,51.86
2019-06-10T07:45:37.766Z,50.57
2019-06-10T07:48:02.856Z,49.82
2019-06-10T07:50:28.810Z,50.24
2019-06-10T07:52:54.759Z,49.33
2019-06-10T07:55:22.203Z,49.50
2019-06-10T07:57:48.122Z,49.16
2019-06-10T08:00:14.773Z,47.77
2019-06-10T08:02:44.230Z,47.86
2019-06-10T08:05:08.911Z,48.46
2019-06-10T08:07:35.240Z,48.45
2019-06-10T08:10:03.629Z,48.45
2019-06-10T08:12:29.500Z,47.99
2019-06-10T08:14:55.354Z,48.11
2019-06-10T08:17:22.406Z,48.88
2019-06-10T08:19:50.880Z,48.75
2019-06-10T08:22:29.933Z,50.21
2019-06-10T08:24:45.364Z,50.62
2019-06-10T08:27:12.084Z,50.75
2019-06-10T08:29:38.633Z,50.92
2019-06-10T08:32:04.689Z,48.95
2019-06-10T08:34:32.800Z,47.06
2019-06-10T08:36:58.326Z,48.24
2019-06-10T08:39:24.295Z,50.60
2019-06-10T08:41:52.674Z,49.30
2019-06-10T08:44:18.120Z,49.63
2019-06-10T08:46:46.523Z,49.63
2019-06-10T08:49:12.638Z,50.32
2019-06-10T08:51:39.655Z,49.94
2019-06-10T08:54:05.696Z,49.94
2019-06-10T08:56:32.819Z,48.31
2019-06-10T08:58:59.141Z,48.85
2019-06-10T09:01:25.113Z,49.32
2019-06-10T09:03:53.470Z,48.83
2019-06-10T09:06:18.759Z,50.57
2019-06-10T09:08:47.991Z,50.47
2019-06-10T09:11:13.141Z,50.45
2019-06-10T09:13:39.607Z,49.07
2019-06-10T09:16:15.628Z,50.45
2019-06-10T09:18:34.792Z,49.41
2019-06-10T09:21:02.293Z,48.20
2019-06-10T09:23:28.360Z,50.56
2019-06-10T09:25:57.289Z,49.36
2019-06-10T09:28:23.470Z,49.23
2019-06-10T09:30:56.167Z,47.73
2019-06-10T09:33:17.241Z,50.69
2019-06-10T09:35:46.149Z,50.04
2019-06-10T09:38:10.875Z,49.14
2019-06-10T09:40:48.649Z,50.31
2019-06-10T09:43:12.862Z,50.55
2019-06-10T09:45:40.874Z,48.99
2019-06-10T09:48:06.771Z,49.61
2019-06-10T09:50:41.214Z,49.18
2019-06-10T09:53:07.075Z,49.76
2019-06-10T09:55:33.012Z,49.39
2019-06-10T09:58:00.079Z,49.58
2019-06-10T10:00:42.204Z,48.90
2019-06-10T10:03:08.142Z,49.34
2019-06-10T10:05:34.043Z,50.12
2019-06-10T10:08:00.111Z,49.58
2019-06-10T10:10:37.462Z,49.19
2019-06-10T10:13:07.105Z,49.87
2019-06-10T10:15:34.585Z,50.07
2019-06-10T10:18:02.602Z,49.53
2019-06-10T10:20:28.483Z,51.85
2019-06-10T10:22:55.519Z,49.49
2019-06-10T10:25:23.530Z,49.67
2019-06-10T10:27:51.420Z,48.55
2019-06-10T10:30:24.216Z,51.43
2019-06-10T10:32:50.481Z,48.82
2019-06-10T10:35:16.364Z,50.45
2019-06-10T10:37:42.422Z,49.93
2019-06-10T10:40:08.486Z,49.86
2019-06-10T10:42:45.549Z,49.19
2019-06-10T10:45:04.840Z,50.19
2019-06-10T10:47:33.576Z,50.96
2019-06-10T10:49:58.510Z,50.63
2019-06-10T10:52:24.364Z,50.73
2019-06-10T10:54:51.875Z,51.45
2019-06-10T10:57:18.014Z,50.51
2019-06-10T10:59:45.108Z,50.16
2019-06-10T11:02:12.695Z,50.22
2019-06-10T11:04:44.155Z,49.53
2019-06-10T11:07:12.825Z,49.39
2019-06-10T11:09:37.989Z,50.21
2019-06-10T11:12:03.862Z,50.18
2019-06-10T11:14:30.126Z,50.00
2019-06-10T11:16:58.461Z,49.22
2019-06-10T11:19:23.877Z,49.74
2019-06-10T11:21:49.744Z,49.75
2019-06-10T11:24:32.481Z,49.32
2019-06-10T11:26:43.402Z,49.68
2019-06-10T11:29:09.239Z,49.35
2019-06-10T11:31:35.113Z,49.32
2019-06-10T11:34:02.983Z,50.48
2019-06-10T11:36:28.789Z,51.63
2019-06-10T11:38:56.744Z,51.53
2019-06-10T11:41:23.619Z,51.19
2019-06-10T11:43:51.175Z,51.57
2019-06-10T11:46:17.512Z,51.28
2019-06-10T11:48:44.404Z,50.35
2019-06-10T11:51:12.719Z,49.80
2019-06-10T11:53:38.236Z,50.18
2019-06-10T11:56:04.099Z,50.72
2019-06-10T11:58:29.999Z,51.18
2019-06-10T12:00:58.784Z,52.47
2019-06-10T12:03:23.575Z,51.89
2019-06-10T12:05:53.400Z,51.19
2019-06-10T12:08:17.220Z,50.65
2019-06-10T12:10:43.470Z,50.02
2019-06-10T12:13:10.274Z,49.68
2019-06-10T12:18:03.836Z,50.39
2019-06-10T12:20:28.398Z,50.31
2019-06-10T12:22:57.911Z,51.06
2019-06-10T12:25:32.578Z,50.92
2019-06-10T12:27:50.447Z,52.48
2019-06-10T12:30:17.206Z,51.92
2019-06-10T12:32:43.073Z,51.27
2019-06-10T12:35:13.528Z,50.56
2019-06-10T12:37:38.543Z,51.37
2019-06-10T12:40:09.215Z,52.21
2019-06-10T12:42:35.093Z,52.22
2019-06-10T12:45:05.324Z,51.75
2019-06-10T12:47:28.867Z,51.72
2019-06-10T12:49:56.163Z,51.77
2019-06-10T12:52:22.966Z,51.43
2019-06-10T12:54:48.875Z,51.19
2019-06-10T12:57:16.466Z,50.86
2019-06-10T12:59:42.999Z,51.08
2019-06-10T13:02:18.987Z,50.60
2019-06-10T13:04:37.538Z,52.76
2019-06-10T13:07:05.735Z,51.37
2019-06-10T13:09:32.870Z,50.92
2019-06-10T13:11:59.808Z,52.31
2019-06-10T13:14:25.701Z,50.81
2019-06-10T13:16:52.619Z,50.64
2019-06-10T13:19:18.741Z,50.67
2019-06-10T13:21:44.618Z,50.04
2019-06-10T13:24:12.901Z,51.09
2019-06-10T13:26:38.250Z,51.03
2019-06-10T13:29:07.007Z,50.61
2019-06-10T13:31:33.664Z,50.29
2019-06-10T13:34:05.050Z,50.15
2019-06-10T13:36:27.503Z,49.72
2019-06-10T13:38:53.437Z,50.38
2019-06-10T13:41:19.246Z,49.66
2019-06-10T13:43:45.113Z,49.17
2019-06-10T13:46:11.176Z,48.43
2019-06-10T13:48:37.037Z,48.85
2019-06-10T13:51:08.266Z,49.15
2019-06-10T13:53:30.894Z,47.96
2019-06-10T13:56:14.677Z,48.43
2019-06-10T13:58:25.085Z,48.96
2019-06-10T14:00:53.648Z,48.33
2019-06-10T14:03:18.851Z,49.60
2019-06-10T14:05:45.237Z,47.91
2019-06-10T14:08:15.078Z,49.20
2019-06-10T14:10:39.060Z,49.60
2019-06-10T14:13:10.571Z,48.22
2019-06-10T14:15:35.985Z,49.41
2019-06-10T14:18:05.163Z,49.89
2019-06-10T14:20:29.623Z,49.34
2019-06-10T14:22:55.478Z,49.77
2019-06-10T14:25:23.295Z,51.29
2019-06-10T14:27:49.102Z,50.31
2019-06-10T14:30:16.158Z,50.22
2019-06-10T14:32:42.616Z,48.88
2019-06-10T14:35:10.885Z,49.12
2019-06-10T14:37:39.351Z,49.95
2019-06-10T14:40:07.065Z,48.34
2019-06-10T14:42:33.319Z,49.87
2019-06-10T14:44:59.170Z,50.67
2019-06-10T14:47:25.021Z,50.67
2019-06-10T14:49:52.998Z,51.46
2019-06-10T14:52:18.650Z,52.50
2019-06-10T14:54:48.506Z,53.78
2019-06-10T14:57:15.485Z,53.86
2019-06-10T14:59:42.622Z,54.93
2019-06-10T15:02:09.762Z,57.18
2019-06-10T15:04:36.239Z,57.15
2019-06-10T15:07:03.348Z,57.17
2019-06-10T15:09:29.774Z,57.80
2019-06-10T15:11:55.650Z,58.02
2019-06-10T15:14:23.297Z,58.17
2019-06-10T15:16:49.434Z,60.83
2019-06-10T15:19:21.913Z,60.30
2019-06-10T15:21:43.501Z,61.20
2019-06-10T15:24:09.885Z,61.83
2019-06-10T15:26:35.817Z,61.42
2019-06-10T15:29:02.728Z,62.36
2019-06-10T15:31:28.865Z,62.11
2019-06-10T15:33:54.732Z,61.54
2019-06-10T15:36:20.604Z,63.45
2019-06-10T15:38:46.474Z,62.62
2019-06-10T15:41:16.056Z,62.61
2019-06-10T15:43:42.248Z,63.37
2019-06-10T15:46:07.902Z,64.32
2019-06-10T15:48:33.772Z,62.74
2019-06-10T15:50:59.633Z,62.43
2019-06-10T15:53:25.998Z,62.89
2019-06-10T15:58:21.136Z,61.13
2019-06-10T16:00:47.579Z,60.87
2019-06-10T16:03:15.878Z,60.17
2019-06-10T16:05:42.741Z,59.74
2019-06-10T16:08:08.677Z,60.15
2019-06-10T16:10:34.537Z,59.77
2019-06-10T16:13:03.228Z,59.55
2019-06-10T16:15:28.285Z,59.87
2019-06-10T16:17:54.153Z,59.67
2019-06-10T16:20:21.367Z,59.61
2019-06-10T16:22:52.343Z,59.61
2019-06-10T16:25:18.372Z,59.84
2019-06-10T16:27:50.731Z,60.86
2019-06-10T16:30:13.117Z,61.34
2019-06-10T16:32:40.049Z,61.89
2019-06-10T16:35:06.394Z,61.78
2019-06-10T16:37:32.770Z,63.01
2019-06-10T16:39:58.737Z,63.62
2019-06-10T16:42:26.185Z,63.70
2019-06-10T16:44:52.836Z,63.69
2019-06-10T16:47:19.102Z,63.35
2019-06-10T16:49:45.121Z,62.38
2019-06-10T16:52:12.143Z,64.07
2019-06-10T16:54:38.128Z,63.32
2019-06-10T16:57:04.034Z,64.34
2019-06-10T16:59:30.834Z,64.21
2019-06-10T17:01:57.686Z,64.04
2019-06-10T17:04:24.594Z,65.45
2019-06-10T17:06:52.595Z,65.21
2019-06-10T17:09:18.622Z,64.37
2019-06-10T17:11:44.454Z,64.52
2019-06-10T17:14:12.499Z,63.81
2019-06-10T17:16:40.577Z,63.94
2019-06-10T17:19:05.877Z,63.84
2019-06-10T17:21:34.595Z,63.41
2019-06-10T17:24:03.258Z,64.32
2019-06-10T17:26:33.461Z,65.76
2019-06-10T17:28:55.946Z,64.16
2019-06-10T17:31:25.739Z,65.33
2019-06-10T17:33:49.580Z,66.32
2019-06-10T17:36:15.536Z,67.06
2019-06-10T17:38:42.990Z,67.38
2019-06-10T17:41:09.563Z,67.80
2019-06-10T17:43:35.421Z,68.51
2019-06-10T17:46:03.401Z,67.42
2019-06-10T17:48:29.279Z,66.99
2019-06-10T17:50:55.448Z,66.75
2019-06-10T17:53:22.258Z,67.58
2019-06-10T17:55:48.379Z,68.27
2019-06-10T17:58:14.247Z,68.27
2019-06-10T18:00:42.235Z,68.58
2019-06-10T18:03:07.867Z,68.45
2019-06-10T18:05:33.740Z,68.54
2019-06-10T18:08:02.163Z,67.35
2019-06-10T18:10:27.722Z,69.29
2019-06-10T18:12:53.673Z,69.61
2019-06-10T18:15:22.083Z,69.77
2019-06-10T18:17:47.431Z,71.49
2019-06-10T18:20:15.420Z,71.75
2019-06-10T18:22:41.388Z,72.45
2019-06-10T18:25:07.352Z,72.83
2019-06-10T18:27:34.107Z,73.17
2019-06-10T18:30:02.486Z,74.03
2019-06-10T18:32:29.704Z,73.10
2019-06-10T18:34:56.615Z,74.97
2019-06-10T18:37:22.823Z,75.29
2019-06-10T18:39:48.814Z,74.50
2019-06-10T18:42:14.708Z,75.79
2019-06-10T18:44:40.547Z,75.65
2019-06-10T18:47:06.394Z,75.38
2019-06-10T18:49:34.027Z,75.79
2019-06-10T18:52:00.030Z,75.31
2019-06-10T18:54:25.881Z,74.71
2019-06-10T18:56:52.610Z,73.78
2019-06-10T18:59:21.295Z,74.18
2019-06-10T19:01:46.303Z,74.51
2019-06-10T19:04:12.980Z,73.81
2019-06-10T19:06:39.888Z,73.70
2019-06-10T19:09:06.810Z,73.63
2019-06-10T19:11:34.119Z,73.99
2019-06-10T19:14:03.164Z,74.88
2019-06-10T19:16:29.672Z,73.93
2019-06-10T19:18:55.614Z,74.96
2019-06-10T19:21:21.486Z,76.75
2019-06-10T19:23:47.592Z,77.15
2019-06-10T19:26:13.885Z,76.69
2019-06-10T19:28:41.240Z,77.91
2019-06-10T19:31:07.723Z,77.75
2019-06-10T19:33:35.737Z,76.96
2019-06-10T19:36:02.227Z,78.34
2019-06-10T19:38:28.310Z,79.50
2019-06-10T19:40:54.288Z,80.30
2019-06-10T19:43:20.292Z,81.09
2019-06-10T19:45:46.900Z,81.45
2019-06-10T19:48:12.938Z,81.48
2019-06-10T19:50:39.449Z,80.43
2019-06-10T19:53:06.615Z,81.68
2019-06-10T19:55:33.723Z,81.28
2019-06-10T19:58:03.483Z,81.09
2019-06-10T20:00:28.051Z,81.50
2019-06-10T20:02:53.927Z,82.07
2019-06-10T20:05:19.873Z,80.89
2019-06-10T20:07:50.101Z,80.97
2019-06-10T20:10:13.904Z,80.54
2019-06-10T20:12:41.050Z,80.99
2019-06-10T20:15:24.326Z,81.17
2019-06-10T20:17:52.545Z,80.71
2019-06-10T20:20:19.118Z,81.37
2019-06-10T20:22:46.669Z,81.22
2019-06-10T20:25:14.398Z,80.98
2019-06-10T20:27:42.836Z,80.92
2019-06-10T20:30:21.596Z,80.08
2019-06-10T20:32:37.148Z,81.40
2019-06-10T20:35:05.003Z,81.01
2019-06-10T20:37:32.645Z,81.23
2019-06-10T20:39:58.502Z,81.72
2019-06-10T20:42:24.355Z,81.67
2019-06-10T20:44:50.226Z,81.21
2019-06-10T20:47:16.082Z,81.97
2019-06-10T20:49:44.556Z,80.88
2019-06-10T20:52:12.331Z,81.32
2019-06-10T20:54:38.261Z,81.70
2019-06-10T20:57:04.392Z,80.97
2019-06-10T20:59:33.097Z,79.94
2019-06-10T21:01:57.975Z,78.74
2019-06-10T21:04:23.837Z,77.76
2019-06-10T21:06:53.145Z,77.01
2019-06-10T21:09:22.436Z,77.93
2019-06-10T21:11:48.593Z,79.22
2019-06-10T21:14:15.680Z,81.08
2019-06-10T21:16:42.024Z,81.92
2019-06-10T21:19:08.031Z,81.68
2019-06-10T21:21:33.892Z,81.05
2019-06-10T21:24:02.078Z,80.89
2019-06-10T21:26:27.571Z,80.57
2019-06-10T21:28:55.057Z,78.71
2019-06-10T21:31:21.225Z,78.86
2019-06-10T21:33:49.074Z,78.29
2019-06-10T21:36:14.875Z,77.97
2019-06-10T21:38:43.870Z,78.84
2019-06-10T21:41:08.498Z,79.80
2019-06-10T21:43:34.364Z,79.22
2019-06-10T21:46:00.239Z,78.32
2019-06-10T21:48:26.105Z,79.21
2019-06-10T21:50:55.811Z,80.04
2019-06-10T21:53:22.168Z,81.75
2019-06-10T21:55:48.699Z,82.85
2019-06-10T21:58:14.635Z,83.00
2019-06-10T22:00:55.590Z,81.55
2019-06-10T22:03:12.873Z,79.95
2019-06-10T22:05:38.727Z,79.78
2019-06-10T22:08:04.612Z,80.18
2019-06-10T22:10:30.463Z,80.98
2019-06-10T22:12:56.335Z,80.53
2019-06-10T22:15:22.632Z,80.44
2019-06-10T22:17:48.542Z,79.67
2019-06-10T22:20:14.495Z,79.25
2019-06-10T22:22:42.706Z,80.82
2019-06-10T22:25:08.432Z,79.86
2019-06-10T22:27:34.278Z,79.83
2019-06-10T22:30:02.710Z,80.19
2019-06-10T22:32:27.937Z,80.77
2019-06-10T22:34:55.509Z,79.76
2019-06-10T22:37:23.668Z,80.57
2019-06-10T22:39:50.034Z,80.41
2019-06-10T22:42:15.880Z,80.29
2019-06-10T22:44:42.377Z,80.05
2019-06-10T22:47:08.436Z,80.42
2019-06-10T22:49:34.285Z,80.46
2019-06-10T22:52:00.436Z,80.83
2019-06-10T22:54:26.472Z,80.87
2019-06-10T22:56:56.226Z,81.10
2019-06-10T22:59:20.099Z,81.16
2019-06-10T23:01:45.971Z,80.31
2019-06-10T23:04:13.494Z,81.07
2019-06-10T23:06:39.491Z,81.62
2019-06-10T23:09:05.651Z,81.16
2019-06-10T23:11:32.305Z,81.11
2019-06-10T23:13:59.564Z,81.15
2019-06-10T23:16:25.511Z,79.82
2019-06-10T23:18:53.592Z,80.13
2019-06-10T23:21:19.126Z,79.89
2019-06-10T23:23:44.984Z,81.62
2019-06-10T23:26:12.957Z,81.12
2019-06-10T23:28:38.605Z,81.52
2019-06-10T23:31:05.457Z,80.27
2019-06-10T23:33:32.407Z,80.68
2019-06-10T23:35:58.756Z,80.87
2019-06-10T23:38:24.670Z,79.98
2019-06-10T23:40:52.514Z,80.78
2019-06-10T23:43:18.962Z,80.08
2019-06-10T23:45:44.837Z,80.48
2019-06-10T23:48:13.185Z,80.91
2019-06-10T23:50:38.475Z,81.19
2019-06-10T23:53:07.539Z,81.13
2019-06-10T23:55:32.095Z,81.31
2019-06-10T23:57:58.366Z,81.28
